Time;durP1;ratioP1;P1;durP2;ratioP2;P2;SDS_P1;SDS_P2;PMS_P1;PMS_P2;Temp;Humidity;BMP_temperature;BMP_pressure;BME280_temperature;BME280_humidity;BME280_pressure;Samples;Min_cycle;Max_cycle;Signal;HPM_P1;HPM_P2
2022/08/12 00:49:36;;;;;;;;;;;;;;;;;;;;;
2022/08/12 00:53:17;;;;;;;;;;;;;;;;;;;;;
2022/08/12 00:59:28;;;;;;;6.90;2.10;;;;;;;14.95;53.34;99599.48;109754;1276;22411;-92
2022/08/12 01:02:57;;;;;;;;;;;;;;;;;;;;;
2022/08/12 01:13:19;;;;;;;9.60;2.80;;;;;;;15.00;53.78;99584.70;109786;1276;22389;-91
2022/08/12 01:23:23;;;;;;;7.20;2.30;;;;;;;14.89;53.81;99574.17;109589;1281;22491;-92
2022/08/12 01:30:25;;;;;;;;;;;;;;;;;;;;;
2022/08/12 01:33:33;;;;;;;7.00;2.20;;;;;;;14.80;54.23;99576.83;109632;1278;22383;-91
2022/08/12 01:36:56;;;;;;;7.40;2.30;;;;;;;14.79;54.16;99574.55;109433;1279;22358;-91
2022/08/12 01:40:28;;;;;;;;;;;;;;;;;;;;;
2022/08/12 01:44:03;;;;;;;;;;;;;;;;;;;;;
2022/08/12 01:47:20;;;;;;;;;;;;;;;;;;;;;
2022/08/12 01:50:20;;;;;;;8.50;2.50;;;;;;;14.43;54.56;99573.04;109648;1280;23182;-91
2022/08/12 01:53:23;;;;;;;10.30;2.40;;;;;;;14.33;54.66;99575.56;109649;1279;22419;-93
2022/08/12 01:56:34;;;;;;;11.40;2.80;;;;;;;14.26;54.64;99571.79;109784;1276;22355;-92
2022/08/12 02:00:05;;;;;;;;;;;;;;;;;;;;;
2022/08/12 02:36:10;;;;;;;;;;;;;;;;;;;;;
2022/08/12 02:44:31;;;;;;;8.70;2.50;;;;;;;14.15;56.33;99585.23;109207;1279;23000;-94
2022/08/12 02:48:05;;;;;;;11.60;2.70;;;;;;;14.10;56.22;99584.54;109129;1284;22489;-94
2022/08/12 02:56:24;;;;;;;9.30;2.80;;;;;;;14.16;56.32;99585.36;108610;1287;22504;-93
2022/08/12 03:04:14;;;;;;;10.10;3.00;;;;;;;14.18;56.64;99590.02;109055;1284;22361;-94
2022/08/12 03:07:56;;;;;;;7.30;2.50;;;;;;;14.25;56.86;99590.91;109663;1277;22410;-91
2022/08/12 03:11:02;;;;;;;9.90;2.50;;;;;;;14.32;56.83;99589.38;109681;1278;22498;-91
2022/08/12 03:14:07;;;;;;;10.60;3.20;;;;;;;14.25;56.91;99585.16;109674;1278;22347;-92
2022/08/12 03:16:54;;;;;;;8.60;3.20;;;;;;;14.19;57.12;99582.27;109720;1279;22360;-93
2022/08/12 03:20:11;;;;;;;10.80;2.90;;;;;;;14.19;57.26;99581.02;109701;1277;22350;-92
2022/08/12 03:23:33;;;;;;;;;;;;;;;;;;;;;
2022/08/12 03:26:28;;;;;;;9.50;3.20;;;;;;;14.23;57.33;99579.77;109674;1278;22439;-91
2022/08/12 03:29:44;;;;;;;;;;;;;;;;;;;;;
2022/08/12 03:32:38;;;;;;;7.00;2.30;;;;;;;14.40;57.16;99573.21;109538;1280;22389;-91
2022/08/12 03:35:49;;;;;;;;;;;;;;;;;;;;;
2022/08/12 03:39:19;;;;;;;7.70;2.60;;;;;;;14.55;57.32;99570.98;109695;1279;23245;-91
2022/08/12 03:42:20;;;;;;;9.90;2.90;;;;;;;14.60;57.34;99567.21;109873;1276;22462;-92
2022/08/12 04:04:22;;;;;;;;;;;;;;;;;;;;;
2022/08/12 04:17:09;;;;;;;;;;;;;;;;;;;;;
2022/08/12 04:20:19;;;;;;;;;;;;;;;;;;;;;
2022/08/12 04:23:29;;;;;;;30.80;5.10;;;;;;;14.87;57.98;99581.65;109678;1277;23136;-94
2022/08/12 04:27:24;;;;;;;19.10;3.90;;;;;;;14.94;58.19;99585.77;109669;1281;22357;-94
2022/08/12 04:31:07;;;;;;;;;;;;;;;;;;;;;
2022/08/12 04:38:16;;;;;;;;;;;;;;;;;;;;;
2022/08/12 04:41:33;;;;;;;15.00;4.40;;;;;;;15.53;58.27;99595.70;109578;1279;22507;-92
2022/08/12 04:44:43;;;;;;;14.50;3.40;;;;;;;15.65;58.24;99598.35;109405;1281;23121;-91
2022/08/12 04:47:45;;;;;;;18.30;3.90;;;;;;;15.70;58.33;99583.73;109573;1281;22476;-93
2022/08/12 04:50:49;;;;;;;17.30;6.30;;;;;;;15.85;58.26;99591.98;109706;1278;22583;-92
2022/08/12 04:54:56;;;;;;;19.10;6.20;;;;;;;15.93;58.34;99586.80;109240;1281;22561;-89
2022/08/12 05:01:56;;;;;;;10.90;4.10;;;;;;;16.42;58.46;99595.64;109716;1277;22575;-90
2022/08/12 05:05:20;;;;;;;9.40;3.40;;;;;;;16.82;58.34;99598.79;108815;1283;23116;-92
2022/08/12 05:08:50;;;;;;;;;;;;;;;;;;;;;
2022/08/12 05:12:51;;;;;;;11.10;2.90;;;;;;;17.46;58.16;99599.77;109302;1284;22421;-92
2022/08/12 05:23:09;;;;;;;10.90;3.40;;;;;;;17.93;57.39;99606.25;108841;1284;22222;-93
2022/08/12 05:26:08;;;;;;;;;;;;;;;;;;;;;
2022/08/12 05:29:29;;;;;;;10.00;3.20;;;;;;;17.91;57.37;99592.39;109548;1278;22453;-92
2022/08/12 05:32:54;;;;;;;8.10;2.80;;;;;;;17.98;57.29;99596.35;109055;1284;22570;-91
2022/08/12 05:36:26;;;;;;;;;;;;;;;;;;;;;
2022/08/12 05:40:15;;;;;;;;;;;;;;;;;;;;;
2022/08/12 05:46:34;;;;;;;11.40;3.40;;;;;;;17.95;57.39;99579.77;109790;1276;22436;-91
2022/08/12 05:49:40;;;;;;;;;;;;;;;;;;;;;
2022/08/12 05:57:48;;;;;;;9.50;3.20;;;;;;;18.41;57.51;99593.76;109710;1267;22371;-91
2022/08/12 06:00:27;;;;;;;10.30;3.60;;;;;;;18.53;57.76;99594.02;109159;1282;22543;-93
2022/08/12 06:03:20;;;;;;;12.40;4.00;;;;;;;18.63;57.54;99591.54;109675;1267;22578;-89
2022/08/12 06:07:00;;;;;;;;;;;;;;;;;;;;;
2022/08/12 06:10:50;;;;;;;11.70;3.10;;;;;;;18.77;57.49;99578.24;109409;1279;22432;-92
2022/08/12 06:13:48;;;;;;;;;;;;;;;;;;;;;
2022/08/12 06:17:38;;;;;;;10.60;3.10;;;;;;;19.04;57.55;99579.48;109488;1279;22456;-91
2022/08/12 06:21:08;;;;;;;;;;;;;;;;;;;;;
2022/08/12 06:24:54;;;;;;;;;;;;;;;;;;;;;
2022/08/12 06:28:23;;;;;;;;;;;;;;;;;;;;;
2022/08/12 06:32:15;;;;;;;;;;;;;;;;;;;;;
2022/08/12 06:38:48;;;;;;;11.40;3.40;;;;;;;20.53;57.24;99590.52;109623;1279;22396;-94
2022/08/12 06:45:16;;;;;;;11.60;4.20;;;;;;;20.80;56.52;99588.17;109736;1276;22453;-90
2022/08/12 06:48:50;;;;;;;10.00;4.60;;;;;;;20.76;56.59;99589.70;109762;1266;23184;-90
2022/08/12 06:51:51;;;;;;;;;;;;;;;;;;;;;
2022/08/12 06:55:09;;;;;;;;;;;;;;;;;;;;;
2022/08/12 06:58:59;;;;;;;;;;;;;;;;;;;;;
2022/08/12 07:01:42;;;;;;;11.80;3.20;;;;;;;21.61;56.81;99586.52;109643;1279;22212;-92
2022/08/12 07:04:55;;;;;;;;;;;;;;;;;;;;;
2022/08/12 07:08:37;;;;;;;;;;;;;;;;;;;;;
2022/08/12 07:11:42;;;;;;;9.20;2.40;;;;;;;22.28;56.63;99585.75;109701;1279;22483;-91
2022/08/12 07:18:17;;;;;;;6.00;2.40;;;;;;;22.74;56.55;99577.40;109690;1277;22349;-93
2022/08/12 07:21:42;;;;;;;;;;;;;;;;;;;;;
2022/08/12 07:25:29;;;;;;;6.50;2.60;;;;;;;23.17;55.94;99581.02;109812;1276;22386;-90
2022/08/12 07:28:12;;;;;;;;;;;;;;;;;;;;;
2022/08/12 07:31:13;;;;;;;;;;;;;;;;;;;;;
2022/08/12 07:34:00;;;;;;;5.90;2.40;;;;;;;23.59;55.70;99576.97;109722;1276;22418;-92
2022/08/12 07:37:17;;;;;;;;;;;;;;;;;;;;;
2022/08/12 07:40:20;;;;;;;;;;;;;;;;;;;;;
2022/08/12 07:43:40;;;;;;;7.10;2.40;;;;;;;23.35;55.73;99571.94;109684;1278;22401;-90
2022/08/12 07:57:10;;;;;;;;;;;;;;;;;;;;;
2022/08/12 08:00:35;;;;;;;6.60;2.00;;;;;;;24.15;54.59;99562.94;109690;1278;23196;-92
2022/08/12 08:06:43;;;;;;;;;;;;;;;;;;;;;
2022/08/12 08:09:57;;;;;;;;;;;;;;;;;;;;;
2022/08/12 08:13:04;;;;;;;;;;;;;;;;;;;;;
2022/08/12 08:15:55;;;;;;;4.80;1.80;;;;;;;24.92;54.31;99568.70;109606;1280;22306;-91
2022/08/12 08:20:04;;;;;;;4.90;1.70;;;;;;;25.05;53.97;99569.81;108981;1279;22719;-92
2022/08/12 08:22:36;;;;;;;6.90;1.90;;;;;;;25.21;54.04;99567.96;108484;1287;22531;-91
2022/08/12 08:25:21;;;;;;;5.10;1.90;;;;;;;25.33;54.07;99568.13;108433;1287;22449;-92
2022/08/12 08:28:35;;;;;;;13.90;4.70;;;;;;;25.44;53.97;99564.85;109592;1278;22401;-91
2022/08/12 08:32:24;;;;;;;9.40;3.00;;;;;;;25.63;53.90;99560.50;109542;1281;22419;-92
2022/08/12 08:36:16;;;;;;;;;;;;;;;;;;;;;
2022/08/12 08:42:56;;;;;;;3.50;1.60;;;;;;;25.94;53.31;99561.02;108097;1290;22392;-90
2022/08/12 08:46:00;;;;;;;5.90;1.90;;;;;;;26.08;53.15;99562.11;108254;1290;22385;-92
2022/08/12 08:51:53;;;;;;;4.50;1.60;;;;;;;26.48;52.86;99551.30;109665;1272;22791;-91
2022/08/12 08:54:32;;;;;;;6.40;1.80;;;;;;;26.64;52.83;99544.83;109183;1279;22460;-92
2022/08/12 08:57:04;;;;;;;5.60;2.00;;;;;;;26.74;52.24;99547.33;109621;1266;23238;-91
2022/08/12 09:00:44;;;;;;;11.90;2.20;;;;;;;26.80;52.16;99544.27;109416;1277;22334;-89
2022/08/12 09:06:54;;;;;;;;;;;;;;;;;;;;;
2022/08/12 09:09:47;;;;;;;6.00;1.60;;;;;;;27.19;51.96;99531.05;109384;1277;22334;-92
2022/08/12 09:16:24;;;;;;;5.50;1.80;;;;;;;27.27;51.64;99540.98;109773;1277;22207;-91
2022/08/12 09:19:19;;;;;;;;;;;;;;;;;;;;;
2022/08/12 09:21:56;;;;;;;7.40;1.70;;;;;;;27.61;50.50;99536.37;109562;1279;22333;-90
2022/08/12 09:25:09;;;;;;;;;;;;;;;;;;;;;
2022/08/12 09:28:15;;;;;;;7.10;1.60;;;;;;;27.85;50.66;99534.23;109441;1281;22532;-89
2022/08/12 09:31:14;;;;;;;9.40;1.80;;;;;;;27.84;50.82;99532.25;109215;1281;22453;-89
2022/08/12 09:37:18;;;;;;;;;;;;;;;;;;;;;
2022/08/12 09:39:56;;;;;;;5.80;1.40;;;;;;;28.75;50.10;99539.96;109170;1281;22251;-89
2022/08/12 09:45:21;;;;;;;5.00;1.20;;;;;;;29.22;49.89;99536.44;109127;1281;22403;-93
2022/08/12 09:47:53;;;;;;;8.50;1.30;;;;;;;29.30;49.34;99533.05;108836;1281;22435;-88
2022/08/12 09:55:21;;;;;;;5.10;1.30;;;;;;;28.54;48.56;99536.23;109694;1279;22443;-92
2022/08/12 09:58:37;;;;;;;;;;;;;;;;;;;;;
2022/08/12 10:02:18;;;;;;;5.50;1.40;;;;;;;28.71;48.80;99532.66;108670;1284;22514;-89
2022/08/12 10:05:56;;;;;;;7.10;1.60;;;;;;;28.92;48.14;99522.29;107544;1295;22411;-92
2022/08/12 10:56:48;;;;;;;37.30;14.10;;;;;;;30.40;45.41;99469.04;108021;1291;23204;-91
2022/08/12 11:08:20;;;;;;;9.60;3.10;;;;;;;29.81;45.08;99466.92;107332;1300;22588;-88
2022/08/12 11:12:22;;;;;;;5.40;1.50;;;;;;;29.40;44.81;99471.55;108945;1284;22515;-92
2022/08/12 11:15:35;;;;;;;7.40;1.80;;;;;;;29.62;45.04;99466.02;108654;1284;22371;-89
2022/08/12 11:18:48;;;;;;;3.80;1.40;;;;;;;29.87;44.99;99462.84;108732;1284;22392;-90
2022/08/12 11:21:30;;;;;;;8.80;1.40;;;;;;;29.68;44.24;99454.48;108668;1284;22509;-87
2022/08/12 11:24:51;;;;;;;5.90;1.40;;;;;;;29.09;44.05;99458.11;108761;1284;22255;-93
2022/08/12 11:27:59;;;;;;;4.20;1.30;;;;;;;29.01;44.37;99458.85;108593;1285;22445;-90
2022/08/12 11:31:13;;;;;;;3.70;1.10;;;;;;;29.15;44.28;99444.55;108760;1282;22496;-93
2022/08/12 11:34:17;;;;;;;3.20;1.30;;;;;;;29.40;44.05;99443.42;108839;1284;23114;-91
2022/08/12 11:37:20;;;;;;;8.60;1.50;;;;;;;29.31;44.03;99435.13;109528;1281;23137;-93
2022/08/12 11:40:11;;;;;;;8.80;1.80;;;;;;;29.33;44.03;99435.48;109355;1281;22250;-91
2022/08/12 11:43:01;;;;;;;;;;;;;;;;;;;;;
2022/08/12 11:46:14;;;;;;;7.70;2.70;;;;;;;29.32;43.35;99436.59;109326;1281;23112;-91
2022/08/12 11:49:20;;;;;;;;;;;;;;;;;;;;;
2022/08/12 11:55:28;;;;;;;4.70;1.80;;;;;;;28.48;42.70;99430.98;109770;1277;23202;-91
2022/08/12 11:58:44;;;;;;;;;;;;;;;;;;;;;
2022/08/12 12:01:41;;;;;;;5.10;1.40;;;;;;;28.68;42.95;99425.80;109415;1278;22449;-91
2022/08/12 12:05:20;;;;;;;4.20;1.20;;;;;;;28.88;43.20;99422.86;109493;1278;22335;-92
2022/08/12 12:08:55;;;;;;;4.20;1.40;;;;;;;29.23;42.83;99411.58;108486;1286;22169;-88
2022/08/12 12:15:53;;;;;;;4.70;1.60;;;;;;;29.63;42.73;99402.52;107845;1293;22324;-91
2022/08/12 12:22:38;;;;;;;4.90;1.40;;;;;;;29.14;42.41;99403.00;108273;1289;22641;-89
2022/08/12 12:25:26;;;;;;;4.60;1.60;;;;;;;29.26;42.22;99404.73;108469;1287;23276;-90
2022/08/12 12:40:43;;;;;;;8.20;1.70;;;;;;;30.10;41.91;99398.02;109514;1279;22993;-90
2022/08/12 12:43:31;;;;;;;;;;;;;;;;;;;;;
2022/08/12 12:46:44;;;;;;;5.60;1.90;;;;;;;29.89;41.37;99396.13;109480;1279;22318;-90
2022/08/12 12:50:14;;;;;;;;;;;;;;;;;;;;;
2022/08/12 12:54:03;;;;;;;7.40;1.40;;;;;;;29.28;40.93;99388.51;109427;1279;22227;-92
2022/08/12 12:59:31;;;;;;;3.80;1.50;;;;;;;28.95;41.36;99383.75;109769;1269;22388;-92
2022/08/12 13:02:49;;;;;;;;;;;;;;;;;;;;;
2022/08/12 13:09:22;;;;;;;;;;;;;;;;;;;;;
2022/08/12 13:12:39;;;;;;;7.10;1.50;;;;;;;29.21;41.02;99377.02;109186;1281;22393;-90
2022/08/12 13:15:50;;;;;;;;;;;;;;;;;;;;;
2022/08/12 13:19:35;;;;;;;6.40;1.40;;;;;;;28.92;40.95;99364.19;109510;1279;22512;-91
2022/08/12 13:22:51;;;;;;;6.50;1.60;;;;;;;28.61;40.56;99371.63;108897;1284;23168;-91
2022/08/12 13:26:15;;;;;;;9.90;1.70;;;;;;;28.38;40.38;99379.55;108651;1284;22502;-89
2022/08/12 13:29:43;;;;;;;;;;;;;;;;;;;;;
2022/08/12 13:33:05;;;;;;;5.80;1.60;;;;;;;28.73;40.41;99369.44;108714;1284;22458;-90
2022/08/12 13:36:46;;;;;;;;;;;;;;;;;;;;;
2022/08/12 13:43:28;;;;;;;7.70;1.70;;;;;;;29.20;40.16;99352.60;108750;1285;23192;-91
2022/08/12 13:50:56;;;;;;;;;;;;;;;;;;;;;
2022/08/12 13:54:49;;;;;;;3.80;1.40;;;;;;;29.66;39.79;99341.67;109408;1277;22367;-90
2022/08/12 13:57:20;;;;;;;4.70;1.20;;;;;;;29.59;39.88;99341.02;109620;1277;22564;-92
2022/08/12 14:03:21;;;;;;;;;;;;;;;;;;;;;
2022/08/12 14:07:00;;;;;;;7.20;1.60;;;;;;;29.70;39.29;99325.97;109359;1281;22497;-91
2022/08/12 14:11:21;;;;;;;8.00;2.50;;;;;;;29.96;39.06;99321.70;109530;1279;22326;-90
2022/08/12 14:14:25;;;;;;;;;;;;;;;;;;;;;
2022/08/12 14:17:50;;;;;;;;;;;;;;;;;;;;;
2022/08/12 14:21:21;;;;;;;;;;;;;;;;;;;;;
2022/08/12 14:25:21;;;;;;;10.80;2.00;;;;;;;28.98;38.93;99331.66;108467;1287;22444;-92
2022/08/12 14:29:02;;;;;;;4.80;1.60;;;;;;;28.42;39.27;99340.95;107995;1290;22523;-89
2022/08/12 14:32:45;;;;;;;6.20;1.80;;;;;;;28.23;39.17;99330.92;107221;1299;22466;-90
2022/08/12 14:35:56;;;;;;;4.70;1.30;;;;;;;28.20;38.92;99326.83;107289;1298;22429;-90
2022/08/12 14:43:13;;;;;;;9.30;1.70;;;;;;;28.87;39.23;99312.09;107305;1299;22596;-91
2022/08/12 14:46:02;;;;;;;5.60;1.60;;;;;;;29.23;38.72;99312.27;106720;1305;22349;-92
2022/08/12 14:52:42;;;;;;;6.40;2.10;;;;;;;29.52;38.92;99293.63;106908;1303;23042;-93
2022/08/12 14:55:31;;;;;;;;;;;;;;;;;;;;;
2022/08/12 15:01:37;;;;;;;9.00;1.90;;;;;;;29.19;39.20;99308.66;108773;1285;22285;-92
2022/08/12 15:02:09;;;;;;;11.30;1.80;;;;;;;29.43;38.52;99309.39;108580;1285;22433;-94
2022/08/12 15:08:44;;;;;;;9.30;2.20;;;;;;;28.70;38.41;99311.92;108937;1285;23238;-92
2022/08/12 15:11:15;;;;;;;5.80;1.80;;;;;;;28.78;38.38;99306.23;108415;1284;22338;-88
2022/08/12 15:14:19;;;;;;;;;;;;;;;;;;;;;
2022/08/12 15:19:59;;;;;;;5.90;1.80;;;;;;;28.83;38.25;99297.92;109331;1281;23146;-93
2022/08/12 15:22:55;;;;;;;4.90;1.70;;;;;;;28.94;38.42;99300.73;109257;1281;22177;-91
2022/08/12 15:25:52;;;;;;;7.80;2.20;;;;;;;29.03;38.24;99301.64;108931;1281;22370;-88
2022/08/12 15:31:29;;;;;;;8.30;2.40;;;;;;;28.91;38.28;99301.42;109550;1272;22378;-92
2022/08/12 15:34:03;;;;;;;7.90;2.10;;;;;;;28.89;38.23;99297.20;109037;1281;22322;-92
2022/08/12 15:40:38;;;;;;;11.60;2.00;;;;;;;28.74;38.07;99294.17;109348;1279;22337;-92
2022/08/12 15:43:11;;;;;;;8.60;2.90;;;;;;;28.62;37.86;99292.65;109030;1279;23183;-89
2022/08/12 15:46:48;;;;;;;8.80;3.00;;;;;;;28.60;38.24;99289.16;107818;1293;22603;-87
2022/08/12 15:49:54;;;;;;;25.70;12.00;;;;;;;28.71;37.95;99289.72;107761;1293;22480;-93
2022/08/12 15:52:28;;;;;;;65.30;33.50;;;;;;;28.90;37.90;99289.55;107629;1293;22568;-91
2022/08/12 15:55:03;;;;;;;14.70;6.30;;;;;;;29.08;37.88;99288.61;107621;1292;22460;-92
2022/08/12 16:00:16;;;;;;;47.70;22.40;;;;;;;29.52;38.16;99270.05;109403;1279;22359;-92
2022/08/12 16:03:12;;;;;;;18.70;5.80;;;;;;;29.99;38.11;99275.11;109426;1279;22364;-92
2022/08/12 16:06:34;;;;;;;10.10;3.20;;;;;;;30.37;37.81;99275.95;108568;1285;22512;-92
2022/08/12 16:09:10;;;;;;;9.90;4.00;;;;;;;30.70;37.46;99272.17;108407;1285;22432;-91
2022/08/12 16:11:43;;;;;;;18.60;8.50;;;;;;;30.83;37.45;99270.58;108345;1285;22527;-92
2022/08/12 16:14:38;;;;;;;10.90;4.00;;;;;;;30.86;37.33;99265.72;108630;1285;22339;-92
2022/08/12 16:17:19;;;;;;;9.00;2.40;;;;;;;30.55;37.10;99267.89;107943;1293;23256;-92
2022/08/12 16:20:11;;;;;;;7.60;2.80;;;;;;;30.01;37.43;99265.73;107689;1293;22428;-91
2022/08/12 16:23:08;;;;;;;13.10;2.50;;;;;;;29.60;37.08;99260.88;107852;1293;21994;-95
2022/08/12 16:25:48;;;;;;;25.80;13.60;;;;;;;29.08;37.40;99268.27;107880;1293;23364;-92
2022/08/12 16:28:21;;;;;;;14.60;6.50;;;;;;;28.67;37.35;99263.45;107837;1293;22428;-91
2022/08/12 16:31:44;;;;;;;;;;;;;;;;;;;;;
2022/08/12 16:34:36;;;;;;;75.50;41.60;;;;;;;28.06;37.68;99257.54;109568;1281;22385;-93
2022/08/12 16:37:11;;;;;;;20.80;10.50;;;;;;;27.79;37.73;99256.86;109234;1279;22411;-89
2022/08/12 16:40:13;;;;;;;8.40;3.30;;;;;;;27.53;37.62;99262.44;109106;1279;22171;-89
2022/08/12 16:43:24;;;;;;;5.30;1.90;;;;;;;27.24;37.42;99260.05;109445;1279;22399;-89
2022/08/12 16:46:10;;;;;;;6.80;1.60;;;;;;;26.97;37.62;99261.98;109281;1278;22525;-90
2022/08/12 16:48:48;;;;;;;5.30;1.80;;;;;;;26.75;37.52;99256.29;109076;1278;23346;-89
2022/08/12 16:51:56;;;;;;;6.90;1.90;;;;;;;26.55;37.64;99259.35;109279;1279;22509;-89
2022/08/12 16:54:43;;;;;;;5.00;1.70;;;;;;;26.35;37.64;99257.10;109067;1279;22184;-90
2022/08/12 16:57:46;;;;;;;5.10;1.70;;;;;;;26.22;37.61;99253.82;108927;1279;22546;-89
2022/08/12 17:00:37;;;;;;;4.10;1.70;;;;;;;26.08;37.64;99255.84;109148;1279;22573;-91
2022/08/12 17:03:51;;;;;;;4.70;1.70;;;;;;;25.95;37.88;99250.09;108896;1281;23187;-92
2022/08/12 17:06:42;;;;;;;4.60;2.40;;;;;;;25.80;37.92;99248.98;109268;1280;22592;-91
2022/08/12 17:09:52;;;;;;;7.90;3.60;;;;;;;25.66;38.06;99240.11;108866;1281;22424;-91
2022/08/12 17:15:51;;;;;;;6.70;2.70;;;;;;;25.43;38.25;99242.34;109438;1279;22287;-91
2022/08/12 17:43:19;;;;;;;;;;;;;;;;;;;;;
2022/08/12 17:48:05;;;;;;;15.30;3.30;;;;;;;24.15;38.86;99252.46;108835;1282;22377;-89
2022/08/12 18:03:22;;;;;;;15.30;5.00;;;;;;;23.57;39.43;99259.89;108974;1282;22663;-91
2022/08/12 18:22:36;;;;;;;10.40;3.20;;;;;;;22.90;40.11;99269.85;109267;1279;22395;-90
2022/08/12 18:29:39;;;;;;;;;;;;;;;;;;;;;
2022/08/12 18:33:22;;;;;;;;;;;;;;;;;;;;;
2022/08/12 18:37:01;;;;;;;;;;;;;;;;;;;;;
2022/08/12 18:43:06;;;;;;;10.60;3.60;;;;;;;22.27;40.90;99269.39;108337;1287;22165;-91
2022/08/12 18:46:55;;;;;;;10.30;4.90;;;;;;;22.16;41.26;99276.85;108281;1287;22425;-90
2022/08/12 18:50:25;;;;;;;6.20;3.00;;;;;;;22.07;41.25;99279.11;107686;1293;22473;-92
2022/08/12 18:53:55;;;;;;;;;;;;;;;;;;;;;
2022/08/12 18:57:45;;;;;;;12.30;4.20;;;;;;;21.91;41.67;99289.10;107720;1293;22494;-90
2022/08/12 19:04:57;;;;;;;43.10;12.00;;;;;;;21.69;41.93;99288.77;107236;1299;22392;-91
2022/08/12 19:07:54;;;;;;;31.50;8.50;;;;;;;21.57;42.09;99289.23;106737;1304;22416;-87
2022/08/12 19:10:51;;;;;;;24.60;7.10;;;;;;;21.50;42.25;99287.89;106539;1305;22283;-90
2022/08/12 19:16:20;;;;;;;34.90;8.40;;;;;;;21.42;42.58;99293.14;106600;1305;22368;-91
2022/08/12 19:18:59;;;;;;;53.10;12.30;;;;;;;21.38;42.66;99290.91;106660;1305;22537;-91
2022/08/12 19:21:51;;;;;;;32.00;8.30;;;;;;;21.36;42.75;99296.58;106613;1305;22299;-91
2022/08/12 19:27:22;;;;;;;26.00;7.60;;;;;;;21.28;43.12;99295.27;107073;1300;22428;-92
2022/08/12 19:29:49;;;;;;;23.40;6.60;;;;;;;21.27;43.09;99295.52;107070;1300;22463;-89
2022/08/12 19:32:23;;;;;;;20.40;5.90;;;;;;;21.24;43.18;99296.73;107118;1300;22298;-90
2022/08/12 19:34:55;;;;;;;23.30;7.10;;;;;;;21.21;43.27;99295.84;106977;1300;22327;-89
2022/08/12 19:37:27;;;;;;;18.90;5.80;;;;;;;21.18;43.49;99292.52;107072;1297;23219;-91
2022/08/12 19:40:02;;;;;;;16.70;5.00;;;;;;;21.17;43.37;99292.77;107467;1288;23461;-91
2022/08/12 19:42:31;;;;;;;26.50;7.90;;;;;;;21.14;43.62;99294.80;108396;1281;22589;-88
2022/08/12 19:45:03;;;;;;;38.30;9.30;;;;;;;21.08;43.66;99288.05;109076;1281;23025;-89
2022/08/12 19:47:31;;;;;;;29.10;7.60;;;;;;;21.06;43.71;99296.98;109404;1281;22495;-90
2022/08/12 19:50:02;;;;;;;16.90;5.70;;;;;;;21.04;43.90;99303.36;108920;1281;22423;-91
2022/08/12 19:52:33;;;;;;;15.70;6.00;;;;;;;20.98;43.95;99301.55;108934;1279;22431;-89
2022/08/12 19:55:03;;;;;;;13.20;4.90;;;;;;;20.96;44.17;99305.96;109389;1279;22520;-90
2022/08/12 19:57:52;;;;;;;11.70;5.00;;;;;;;20.92;44.23;99304.67;109122;1281;22250;-90
2022/08/12 20:00:53;;;;;;;11.00;4.50;;;;;;;20.90;44.30;99301.71;109054;1281;22385;-89
2022/08/12 20:03:46;;;;;;;14.20;6.20;;;;;;;20.85;44.39;99297.52;109261;1280;22599;-90
2022/08/12 20:06:26;;;;;;;17.60;12.70;;;;;;;20.83;44.69;99303.83;108762;1282;22431;-91
2022/08/12 20:09:17;;;;;;;22.70;13.90;;;;;;;20.77;44.63;99298.08;109249;1280;22558;-90
2022/08/12 20:11:51;;;;;;;19.70;10.20;;;;;;;20.75;44.88;99299.21;108899;1281;22446;-89
2022/08/12 20:14:21;;;;;;;17.00;6.30;;;;;;;20.72;44.88;99303.11;109041;1281;22603;-89
2022/08/12 20:17:00;;;;;;;11.90;7.70;;;;;;;20.65;44.96;99301.29;108887;1281;22161;-90
2022/08/12 20:20:02;;;;;;;10.80;4.50;;;;;;;20.59;45.17;99297.38;109049;1281;25096;-90
2022/08/12 20:23:00;;;;;;;10.00;4.10;;;;;;;20.52;45.32;99301.43;108893;1280;22492;-90
2022/08/12 20:25:58;;;;;;;;;;;;;;;;;;;;;
2022/08/12 20:28:40;;;;;;;28.20;12.90;;;;;;;20.40;45.58;99297.63;109175;1281;23397;-91
2022/08/12 20:31:23;;;;;;;36.50;16.50;;;;;;;20.36;45.63;99299.12;109084;1281;22389;-90
2022/08/12 20:34:34;;;;;;;;;;;;;;;;;;;;;
2022/08/12 20:37:27;;;;;;;24.50;10.20;;;;;;;20.25;45.92;99306.52;109041;1282;22423;-90
2022/08/12 20:40:30;;;;;;;10.00;5.30;;;;;;;20.19;46.23;99311.80;109234;1281;23585;-90
2022/08/12 20:43:36;;;;;;;10.20;3.80;;;;;;;20.12;46.22;99306.82;108956;1281;22472;-90
2022/08/12 20:46:28;;;;;;;12.10;4.50;;;;;;;20.07;46.48;99309.49;109259;1281;22483;-90
2022/08/12 20:49:27;;;;;;;18.40;6.70;;;;;;;20.03;46.47;99307.93;108882;1281;22470;-91
2022/08/12 20:52:24;;;;;;;13.20;5.90;;;;;;;20.01;46.60;99302.19;109019;1281;22428;-91
2022/08/12 20:55:21;;;;;;;14.40;7.50;;;;;;;19.98;46.64;99303.08;109056;1281;22493;-91
2022/08/12 20:58:04;;;;;;;28.00;10.00;;;;;;;19.92;46.86;99300.16;109103;1281;22450;-91
2022/08/12 21:01:02;;;;;;;18.60;8.90;;;;;;;19.88;47.07;99307.02;109119;1281;22426;-91
2022/08/12 21:07:05;;;;;;;10.70;6.50;;;;;;;19.78;47.58;99310.51;108892;1282;22443;-89
2022/08/12 21:10:04;;;;;;;9.30;5.20;;;;;;;19.68;47.48;99306.65;109015;1281;22259;-92
2022/08/12 21:12:58;;;;;;;9.00;5.10;;;;;;;19.63;47.75;99314.57;108842;1282;22212;-92
2022/08/12 21:16:00;;;;;;;11.20;4.30;;;;;;;19.60;47.94;99317.38;108998;1281;22446;-90
2022/08/12 21:19:11;;;;;;;9.70;4.70;;;;;;;19.62;48.10;99315.45;108820;1281;22536;-90
2022/08/12 21:22:31;;;;;;;11.80;5.90;;;;;;;19.64;48.12;99312.79;109005;1281;23223;-91
2022/08/12 21:25:58;;;;;;;;;;;;;;;;;;;;;
2022/08/12 21:29:46;;;;;;;13.60;8.20;;;;;;;19.47;48.54;99316.94;109223;1281;23694;-90
2022/08/12 21:32:45;;;;;;;12.70;7.20;;;;;;;19.40;48.54;99312.82;109114;1281;22372;-91
2022/08/12 21:35:54;;;;;;;;;;;;;;;;;;;;;
2022/08/12 21:38:58;;;;;;;13.50;7.90;;;;;;;19.28;48.94;99316.41;109129;1281;22476;-90
2022/08/12 21:42:11;;;;;;;;;;;;;;;;;;;;;
2022/08/12 21:45:18;;;;;;;;;;;;;;;;;;;;;
2022/08/12 21:48:13;;;;;;;16.60;11.50;;;;;;;19.08;49.41;99319.27;109070;1281;22362;-89
2022/08/12 21:51:32;;;;;;;25.80;15.50;;;;;;;18.99;49.52;99315.12;109071;1280;22337;-89
2022/08/12 21:54:26;;;;;;;25.60;15.40;;;;;;;18.94;49.58;99311.10;108856;1281;22533;-89
2022/08/12 21:57:26;;;;;;;22.60;13.60;;;;;;;18.92;49.84;99312.45;109105;1280;22343;-88
2022/08/12 22:00:24;;;;;;;24.10;15.40;;;;;;;18.90;49.90;99312.27;109029;1281;22433;-89
2022/08/12 22:07:28;;;;;;;23.20;15.50;;;;;;;18.87;50.05;99323.90;109244;1280;23074;-89
2022/08/12 22:11:14;;;;;;;22.60;14.60;;;;;;;18.89;50.28;99315.80;109150;1281;22590;-89
2022/08/12 22:14:15;;;;;;;21.20;13.90;;;;;;;18.90;50.45;99314.77;108414;1286;23280;-90
2022/08/12 22:18:13;;;;;;;;;;;;;;;;;;;;;
2022/08/12 22:32:46;;;;;;;15.80;8.90;;;;;;;18.63;51.12;99307.18;106812;1304;22444;-89
2022/08/12 22:35:52;;;;;;;;;;;;;;;;;;;;;
2022/08/12 22:39:12;;;;;;;11.90;7.50;;;;;;;18.76;51.54;99304.32;106781;1305;22412;-89
2022/08/12 22:49:38;;;;;;;12.00;6.30;;;;;;;18.43;51.75;99297.67;105648;1315;22999;-89
2022/08/12 22:52:33;;;;;;;10.10;6.50;;;;;;;18.44;51.89;99289.67;106076;1313;22252;-88
2022/08/12 22:55:12;;;;;;;11.10;6.60;;;;;;;18.37;51.92;99283.20;105946;1313;22237;-89
2022/08/12 22:57:52;;;;;;;10.70;6.40;;;;;;;18.37;52.00;99286.02;106188;1308;22358;-88
2022/08/12 23:00:35;;;;;;;11.00;6.10;;;;;;;18.38;52.12;99280.70;106671;1296;22512;-89
2022/08/12 23:03:37;;;;;;;11.00;5.50;;;;;;;18.40;52.18;99282.89;107340;1296;23193;-88
2022/08/12 23:06:20;;;;;;;10.60;6.00;;;;;;;18.40;52.31;99279.44;107343;1297;23050;-89
2022/08/12 23:09:00;;;;;;;12.20;6.10;;;;;;;18.44;52.38;99274.17;107371;1296;23099;-88
2022/08/12 23:11:40;;;;;;;11.80;6.20;;;;;;;18.55;52.43;99280.92;107328;1297;23422;-88
2022/08/12 23:14:17;;;;;;;10.60;6.10;;;;;;;18.59;52.53;99285.13;107340;1296;22238;-89
2022/08/12 23:16:58;;;;;;;11.50;6.20;;;;;;;18.51;52.73;99280.45;107496;1294;22704;-87
2022/08/12 23:19:50;;;;;;;9.70;6.40;;;;;;;18.47;52.70;99283.45;107944;1287;22562;-89
2022/08/12 23:22:31;;;;;;;10.60;7.10;;;;;;;18.44;52.98;99281.55;108725;1281;23060;-88
2022/08/12 23:25:18;;;;;;;12.90;6.60;;;;;;;18.34;53.06;99278.75;108856;1281;22252;-88
2022/08/12 23:31:03;;;;;;;13.10;6.40;;;;;;;18.20;53.34;99274.47;109054;1281;22402;-88
2022/08/12 23:33:48;;;;;;;12.70;6.60;;;;;;;18.24;53.38;99273.70;108833;1280;23281;-89
2022/08/12 23:36:27;;;;;;;10.40;6.00;;;;;;;18.20;53.54;99271.88;108951;1281;22471;-89
2022/08/12 23:39:12;;;;;;;12.60;6.30;;;;;;;18.10;53.60;99268.06;108884;1280;23155;-89
2022/08/12 23:42:05;;;;;;;10.60;5.90;;;;;;;18.03;53.75;99271.44;109024;1281;22385;-88
2022/08/12 23:44:45;;;;;;;11.90;6.70;;;;;;;17.99;53.99;99271.66;108980;1281;22305;-89
2022/08/12 23:47:17;;;;;;;9.90;6.70;;;;;;;17.96;54.12;99273.22;108969;1281;22155;-89